sensor_id;sensor_type;location;lat;lon;timestamp;pressure;altitude;pressure_sealevel;temperature;humidity
62948;BME280;51940;52.126;-0.994;2023-04-07T00:00:01;100702.23;;;4.61;100.00
62948;BME280;51940;52.126;-0.994;2023-04-07T00:02:28;100705.42;;;4.61;100.00
62948;BME280;51940;52.126;-0.994;2023-04-07T00:04:54;100706.30;;;4.61;100.00
62948;BME280;51940;52.126;-0.994;2023-04-07T00:07:21;100708.27;;;4.62;100.00
62948;BME280;51940;52.126;-0.994;2023-04-07T00:09:46;100708.95;;;4.60;100.00
62948;BME280;51940;52.126;-0.994;2023-04-07T00:12:12;100712.31;;;4.60;100.00
62948;BME280;51940;52.126;-0.994;2023-04-07T00:14:37;100714.61;;;4.59;100.00
62948;BME280;51940;52.126;-0.994;2023-04-07T00:17:02;100713.53;;;4.56;100.00
62948;BME280;51940;52.126;-0.994;2023-04-07T00:19:27;100711.06;;;4.55;100.00
62948;BME280;51940;52.126;-0.994;2023-04-07T00:21:53;100714.23;;;4.54;100.00
62948;BME280;51940;52.126;-0.994;2023-04-07T00:24:18;100716.15;;;4.50;100.00
62948;BME280;51940;52.126;-0.994;2023-04-07T00:26:43;100718.09;;;4.46;100.00
62948;BME280;51940;52.126;-0.994;2023-04-07T00:29:08;100724.76;;;4.42;100.00
62948;BME280;51940;52.126;-0.994;2023-04-07T00:31:34;100722.63;;;4.38;100.00
62948;BME280;51940;52.126;-0.994;2023-04-07T00:33:59;100723.30;;;4.35;100.00
62948;BME280;51940;52.126;-0.994;2023-04-07T00:36:24;100723.99;;;4.32;100.00
62948;BME280;51940;52.126;-0.994;2023-04-07T00:38:51;100725.93;;;4.30;100.00
62948;BME280;51940;52.126;-0.994;2023-04-07T00:41:16;100726.42;;;4.27;100.00
62948;BME280;51940;52.126;-0.994;2023-04-07T00:43:41;100726.58;;;4.24;100.00
62948;BME280;51940;52.126;-0.994;2023-04-07T00:46:07;100729.92;;;4.23;100.00
62948;BME280;51940;52.126;-0.994;2023-04-07T00:48:32;100728.69;;;4.21;100.00
62948;BME280;51940;52.126;-0.994;2023-04-07T00:50:57;100733.11;;;4.20;100.00
62948;BME280;51940;52.126;-0.994;2023-04-07T00:53:23;100732.21;;;4.20;100.00
62948;BME280;51940;52.126;-0.994;2023-04-07T00:55:48;100738.73;;;4.18;100.00
62948;BME280;51940;52.126;-0.994;2023-04-07T00:58:13;100741.02;;;4.18;100.00
62948;BME280;51940;52.126;-0.994;2023-04-07T01:00:44;100743.30;;;4.17;100.00
62948;BME280;51940;52.126;-0.994;2023-04-07T01:03:17;100740.46;;;4.15;100.00
62948;BME280;51940;52.126;-0.994;2023-04-07T01:05:57;100737.46;;;4.13;100.00
62948;BME280;51940;52.126;-0.994;2023-04-07T01:08:27;100735.14;;;4.11;100.00
62948;BME280;51940;52.126;-0.994;2023-04-07T01:11:05;100734.40;;;4.09;100.00
62948;BME280;51940;52.126;-0.994;2023-04-07T01:13:41;100737.56;;;4.05;100.00
62948;BME280;51940;52.126;-0.994;2023-04-07T01:16:10;100737.91;;;4.03;100.00
62948;BME280;51940;52.126;-0.994;2023-04-07T01:18:37;100743.16;;;4.00;100.00
62948;BME280;51940;52.126;-0.994;2023-04-07T01:21:04;100746.50;;;3.99;100.00
62948;BME280;51940;52.126;-0.994;2023-04-07T01:31:24;100744.48;;;3.86;100.00
62948;BME280;51940;52.126;-0.994;2023-04-07T01:33:57;100747.77;;;3.83;100.00
62948;BME280;51940;52.126;-0.994;2023-04-07T01:36:26;100750.42;;;3.82;100.00
62948;BME280;51940;52.126;-0.994;2023-04-07T01:38:54;100747.95;;;3.81;100.00
62948;BME280;51940;52.126;-0.994;2023-04-07T01:41:21;100752.52;;;3.80;100.00
62948;BME280;51940;52.126;-0.994;2023-04-07T01:43:53;100750.23;;;3.77;100.00
62948;BME280;51940;52.126;-0.994;2023-04-07T01:46:19;100748.61;;;3.76;100.00
62948;BME280;51940;52.126;-0.994;2023-04-07T01:48:45;100742.76;;;3.74;100.00
62948;BME280;51940;52.126;-0.994;2023-04-07T01:51:12;100743.45;;;3.73;100.00
62948;BME280;51940;52.126;-0.994;2023-04-07T01:53:41;100740.45;;;3.70;100.00
62948;BME280;51940;52.126;-0.994;2023-04-07T01:56:07;100742.34;;;3.66;100.00
62948;BME280;51940;52.126;-0.994;2023-04-07T01:58:32;100741.43;;;3.63;100.00
62948;BME280;51940;52.126;-0.994;2023-04-07T02:00:57;100746.51;;;3.60;100.00
62948;BME280;51940;52.126;-0.994;2023-04-07T02:03:27;100748.95;;;3.56;100.00
62948;BME280;51940;52.126;-0.994;2023-04-07T02:05:55;100749.98;;;3.53;100.00
62948;BME280;51940;52.126;-0.994;2023-04-07T02:08:21;100752.63;;;3.54;100.00
62948;BME280;51940;52.126;-0.994;2023-04-07T02:10:48;100754.73;;;3.52;100.00
62948;BME280;51940;52.126;-0.994;2023-04-07T02:13:15;100758.39;;;3.49;100.00
62948;BME280;51940;52.126;-0.994;2023-04-07T02:15:42;100756.42;;;3.46;100.00
62948;BME280;51940;52.126;-0.994;2023-04-07T02:18:10;100756.02;;;3.42;100.00
62948;BME280;51940;52.126;-0.994;2023-04-07T02:20:37;100764.45;;;3.38;100.00
62948;BME280;51940;52.126;-0.994;2023-04-07T02:23:02;100762.66;;;3.34;100.00
62948;BME280;51940;52.126;-0.994;2023-04-07T02:25:28;100759.27;;;3.33;100.00
62948;BME280;51940;52.126;-0.994;2023-04-07T02:27:55;100755.73;;;3.30;100.00
62948;BME280;51940;52.126;-0.994;2023-04-07T02:30:21;100752.88;;;3.28;100.00
62948;BME280;51940;52.126;-0.994;2023-04-07T02:32:46;100756.04;;;3.26;100.00
62948;BME280;51940;52.126;-0.994;2023-04-07T02:35:11;100753.71;;;3.24;100.00
62948;BME280;51940;52.126;-0.994;2023-04-07T02:37:37;100750.17;;;3.23;100.00
62948;BME280;51940;52.126;-0.994;2023-04-07T02:40:03;100746.99;;;3.22;100.00
62948;BME280;51940;52.126;-0.994;2023-04-07T02:42:29;100745.40;;;3.22;100.00
62948;BME280;51940;52.126;-0.994;2023-04-07T02:44:54;100745.23;;;3.21;100.00
62948;BME280;51940;52.126;-0.994;2023-04-07T02:47:20;100748.05;;;3.22;100.00
62948;BME280;51940;52.126;-0.994;2023-04-07T02:49:45;100747.69;;;3.22;100.00
62948;BME280;51940;52.126;-0.994;2023-04-07T02:52:11;100746.29;;;3.22;100.00
62948;BME280;51940;52.126;-0.994;2023-04-07T02:54:36;100744.54;;;3.23;100.00
62948;BME280;51940;52.126;-0.994;2023-04-07T02:57:01;100746.88;;;3.25;100.00
62948;BME280;51940;52.126;-0.994;2023-04-07T02:59:26;100747.58;;;3.25;100.00
62948;BME280;51940;52.126;-0.994;2023-04-07T03:01:52;100743.17;;;3.26;100.00
62948;BME280;51940;52.126;-0.994;2023-04-07T03:04:17;100741.59;;;3.26;100.00
62948;BME280;51940;52.126;-0.994;2023-04-07T03:06:42;100746.02;;;3.28;100.00
62948;BME280;51940;52.126;-0.994;2023-04-07T03:09:07;100740.02;;;3.29;100.00
62948;BME280;51940;52.126;-0.994;2023-04-07T03:11:33;100738.98;;;3.31;100.00
62948;BME280;51940;52.126;-0.994;2023-04-07T03:13:58;100738.98;;;3.33;100.00
62948;BME280;51940;52.126;-0.994;2023-04-07T03:16:23;100742.73;;;3.34;100.00
62948;BME280;51940;52.126;-0.994;2023-04-07T03:18:48;100743.80;;;3.35;100.00
62948;BME280;51940;52.126;-0.994;2023-04-07T03:21:14;100742.93;;;3.37;100.00
62948;BME280;51940;52.126;-0.994;2023-04-07T03:23:39;100743.28;;;3.36;100.00
62948;BME280;51940;52.126;-0.994;2023-04-07T03:26:05;100745.04;;;3.35;100.00
62948;BME280;51940;52.126;-0.994;2023-04-07T03:28:30;100743.45;;;3.34;100.00
62948;BME280;51940;52.126;-0.994;2023-04-07T03:30:56;100741.50;;;3.33;100.00
62948;BME280;51940;52.126;-0.994;2023-04-07T03:33:21;100739.72;;;3.33;100.00
62948;BME280;51940;52.126;-0.994;2023-04-07T03:35:46;100742.35;;;3.32;100.00
62948;BME280;51940;52.126;-0.994;2023-04-07T03:38:11;100744.09;;;3.31;100.00
62948;BME280;51940;52.126;-0.994;2023-04-07T03:40:37;100746.20;;;3.29;100.00
62948;BME280;51940;52.126;-0.994;2023-04-07T03:43:02;100750.23;;;3.28;100.00
62948;BME280;51940;52.126;-0.994;2023-04-07T03:45:32;100749.52;;;3.26;100.00
62948;BME280;51940;52.126;-0.994;2023-04-07T03:47:57;100747.92;;;3.25;100.00
62948;BME280;51940;52.126;-0.994;2023-04-07T03:50:22;100748.25;;;3.24;100.00
62948;BME280;51940;52.126;-0.994;2023-04-07T03:52:48;100745.04;;;3.21;100.00
62948;BME280;51940;52.126;-0.994;2023-04-07T03:55:13;100749.96;;;3.18;100.00
62948;BME280;51940;52.126;-0.994;2023-04-07T03:57:38;100747.27;;;3.16;100.00
62948;BME280;51940;52.126;-0.994;2023-04-07T04:00:04;100751.66;;;3.15;100.00
62948;BME280;51940;52.126;-0.994;2023-04-07T04:02:29;100753.23;;;3.13;100.00
62948;BME280;51940;52.126;-0.994;2023-04-07T04:04:55;100754.08;;;3.10;100.00
62948;BME280;51940;52.126;-0.994;2023-04-07T04:07:20;100753.91;;;3.09;100.00
62948;BME280;51940;52.126;-0.994;2023-04-07T04:09:45;100755.98;;;3.07;100.00
62948;BME280;51940;52.126;-0.994;2023-04-07T04:12:10;100761.25;;;3.06;100.00
62948;BME280;51940;52.126;-0.994;2023-04-07T04:14:36;100763.17;;;3.04;100.00
62948;BME280;51940;52.126;-0.994;2023-04-07T04:17:01;100762.61;;;3.01;100.00
62948;BME280;51940;52.126;-0.994;2023-04-07T04:19:26;100762.26;;;3.00;100.00
62948;BME280;51940;52.126;-0.994;2023-04-07T04:21:52;100758.85;;;2.98;100.00
62948;BME280;51940;52.126;-0.994;2023-04-07T04:24:17;100759.02;;;2.96;100.00
62948;BME280;51940;52.126;-0.994;2023-04-07T04:26:42;100760.06;;;2.95;100.00
62948;BME280;51940;52.126;-0.994;2023-04-07T04:29:07;100763.04;;;2.94;100.00
62948;BME280;51940;52.126;-0.994;2023-04-07T04:31:33;100768.42;;;2.88;100.00
62948;BME280;51940;52.126;-0.994;2023-04-07T04:33:58;100773.65;;;2.83;100.00
62948;BME280;51940;52.126;-0.994;2023-04-07T04:36:23;100775.69;;;2.78;100.00
62948;BME280;51940;52.126;-0.994;2023-04-07T04:38:48;100775.46;;;2.74;100.00
62948;BME280;51940;52.126;-0.994;2023-04-07T04:41:14;100781.91;;;2.68;100.00
62948;BME280;51940;52.126;-0.994;2023-04-07T04:43:39;100787.13;;;2.64;100.00
62948;BME280;51940;52.126;-0.994;2023-04-07T04:46:05;100791.98;;;2.59;100.00
62948;BME280;51940;52.126;-0.994;2023-04-07T04:48:30;100797.06;;;2.57;100.00
62948;BME280;51940;52.126;-0.994;2023-04-07T04:50:56;100796.46;;;2.53;100.00
62948;BME280;51940;52.126;-0.994;2023-04-07T04:53:21;100801.19;;;2.51;100.00
62948;BME280;51940;52.126;-0.994;2023-04-07T04:55:46;100805.75;;;2.48;100.00
62948;BME280;51940;52.126;-0.994;2023-04-07T04:58:16;100812.00;;;2.45;100.00
62948;BME280;51940;52.126;-0.994;2023-04-07T05:00:41;100817.20;;;2.38;100.00
62948;BME280;51940;52.126;-0.994;2023-04-07T05:03:07;100818.64;;;2.31;100.00
62948;BME280;51940;52.126;-0.994;2023-04-07T05:05:32;100818.77;;;2.27;100.00
62948;BME280;51940;52.126;-0.994;2023-04-07T05:07:57;100820.61;;;2.21;100.00
62948;BME280;51940;52.126;-0.994;2023-04-07T05:10:23;100826.08;;;2.11;100.00
62948;BME280;51940;52.126;-0.994;2023-04-07T05:12:48;100825.63;;;2.05;100.00
62948;BME280;51940;52.126;-0.994;2023-04-07T05:15:13;100828.05;;;2.04;100.00
62948;BME280;51940;52.126;-0.994;2023-04-07T05:17:39;100831.04;;;2.04;100.00
62948;BME280;51940;52.126;-0.994;2023-04-07T05:20:08;100835.33;;;2.06;100.00
62948;BME280;51940;52.126;-0.994;2023-04-07T05:22:33;100839.06;;;2.10;100.00
62948;BME280;51940;52.126;-0.994;2023-04-07T05:24:59;100841.72;;;2.11;100.00
62948;BME280;51940;52.126;-0.994;2023-04-07T05:27:24;100848.39;;;2.10;100.00
62948;BME280;51940;52.126;-0.994;2023-04-07T05:29:49;100851.33;;;2.06;100.00
62948;BME280;51940;52.126;-0.994;2023-04-07T05:32:15;100853.91;;;2.04;100.00
62948;BME280;51940;52.126;-0.994;2023-04-07T05:34:41;100856.04;;;2.05;100.00
62948;BME280;51940;52.126;-0.994;2023-04-07T05:37:06;100864.98;;;2.03;100.00
62948;BME280;51940;52.126;-0.994;2023-04-07T05:39:31;100868.28;;;2.01;100.00
62948;BME280;51940;52.126;-0.994;2023-04-07T05:41:57;100864.39;;;1.99;100.00
62948;BME280;51940;52.126;-0.994;2023-04-07T05:44:22;100854.63;;;2.05;100.00
62948;BME280;51940;52.126;-0.994;2023-04-07T05:46:48;100856.50;;;2.10;100.00
62948;BME280;51940;52.126;-0.994;2023-04-07T05:49:13;100856.63;;;2.18;100.00
62948;BME280;51940;52.126;-0.994;2023-04-07T05:51:38;100861.18;;;2.27;100.00
62948;BME280;51940;52.126;-0.994;2023-04-07T05:54:03;100865.11;;;2.41;100.00
62948;BME280;51940;52.126;-0.994;2023-04-07T05:56:29;100868.24;;;2.49;100.00
62948;BME280;51940;52.126;-0.994;2023-04-07T05:58:54;100868.55;;;2.58;100.00
62948;BME280;51940;52.126;-0.994;2023-04-07T06:01:20;100866.92;;;2.66;100.00
62948;BME280;51940;52.126;-0.994;2023-04-07T06:03:45;100866.68;;;2.73;100.00
62948;BME280;51940;52.126;-0.994;2023-04-07T06:06:10;100864.29;;;2.78;100.00
62948;BME280;51940;52.126;-0.994;2023-04-07T06:08:36;100861.77;;;2.86;100.00
62948;BME280;51940;52.126;-0.994;2023-04-07T06:11:01;100865.02;;;2.92;100.00
62948;BME280;51940;52.126;-0.994;2023-04-07T06:13:27;100866.54;;;3.00;100.00
62948;BME280;51940;52.126;-0.994;2023-04-07T06:15:53;100865.95;;;3.07;100.00
62948;BME280;51940;52.126;-0.994;2023-04-07T06:18:19;100869.94;;;3.16;100.00
62948;BME280;51940;52.126;-0.994;2023-04-07T06:20:45;100869.55;;;3.26;100.00
62948;BME280;51940;52.126;-0.994;2023-04-07T06:23:10;100870.41;;;3.38;100.00
62948;BME280;51940;52.126;-0.994;2023-04-07T06:25:36;100875.27;;;3.46;100.00
62948;BME280;51940;52.126;-0.994;2023-04-07T06:28:01;100873.23;;;3.52;100.00
62948;BME280;51940;52.126;-0.994;2023-04-07T06:30:26;100880.19;;;3.59;100.00
62948;BME280;51940;52.126;-0.994;2023-04-07T06:32:52;100883.48;;;3.70;100.00
62948;BME280;51940;52.126;-0.994;2023-04-07T06:35:17;100885.77;;;3.84;100.00
62948;BME280;51940;52.126;-0.994;2023-04-07T06:37:42;100891.95;;;4.01;100.00
62948;BME280;51940;52.126;-0.994;2023-04-07T06:40:08;100894.53;;;4.11;100.00
62948;BME280;51940;52.126;-0.994;2023-04-07T06:42:33;100892.34;;;4.21;100.00
62948;BME280;51940;52.126;-0.994;2023-04-07T06:44:58;100891.93;;;4.34;100.00
62948;BME280;51940;52.126;-0.994;2023-04-07T06:47:24;100897.64;;;4.40;100.00
62948;BME280;51940;52.126;-0.994;2023-04-07T06:49:49;100898.73;;;4.44;100.00
62948;BME280;51940;52.126;-0.994;2023-04-07T06:52:14;100903.36;;;4.49;100.00
62948;BME280;51940;52.126;-0.994;2023-04-07T06:54:39;100909.60;;;4.55;100.00
62948;BME280;51940;52.126;-0.994;2023-04-07T06:57:05;100913.17;;;4.61;100.00
62948;BME280;51940;52.126;-0.994;2023-04-07T06:59:35;100915.52;;;4.66;100.00
62948;BME280;51940;52.126;-0.994;2023-04-07T07:02:01;100914.89;;;4.74;100.00
62948;BME280;51940;52.126;-0.994;2023-04-07T07:04:26;100915.64;;;4.81;100.00
62948;BME280;51940;52.126;-0.994;2023-04-07T07:06:51;100917.11;;;4.87;100.00
62948;BME280;51940;52.126;-0.994;2023-04-07T07:09:17;100918.05;;;4.95;100.00
62948;BME280;51940;52.126;-0.994;2023-04-07T07:11:42;100917.06;;;5.04;100.00
62948;BME280;51940;52.126;-0.994;2023-04-07T07:14:07;100916.05;;;5.14;100.00
62948;BME280;51940;52.126;-0.994;2023-04-07T07:16:33;100918.08;;;5.25;100.00
62948;BME280;51940;52.126;-0.994;2023-04-07T07:18:58;100916.37;;;5.37;100.00
62948;BME280;51940;52.126;-0.994;2023-04-07T07:21:23;100919.77;;;5.46;100.00
62948;BME280;51940;52.126;-0.994;2023-04-07T07:23:48;100912.93;;;5.56;100.00
62948;BME280;51940;52.126;-0.994;2023-04-07T07:26:14;100919.18;;;5.69;100.00
62948;BME280;51940;52.126;-0.994;2023-04-07T07:28:39;100918.00;;;5.84;100.00
62948;BME280;51940;52.126;-0.994;2023-04-07T07:31:11;100917.55;;;5.99;100.00
62948;BME280;51940;52.126;-0.994;2023-04-07T07:33:40;100917.80;;;6.24;100.00
62948;BME280;51940;52.126;-0.994;2023-04-07T07:36:08;100917.64;;;6.38;100.00
62948;BME280;51940;52.126;-0.994;2023-04-07T07:38:33;100921.38;;;6.57;100.00
62948;BME280;51940;52.126;-0.994;2023-04-07T07:40:59;100920.14;;;6.71;100.00
62948;BME280;51940;52.126;-0.994;2023-04-07T07:43:25;100925.47;;;6.85;100.00
62948;BME280;51940;52.126;-0.994;2023-04-07T07:45:50;100926.86;;;6.94;100.00
62948;BME280;51940;52.126;-0.994;2023-04-07T07:48:15;100930.23;;;7.03;100.00
62948;BME280;51940;52.126;-0.994;2023-04-07T07:50:41;100930.04;;;7.14;100.00
62948;BME280;51940;52.126;-0.994;2023-04-07T07:53:08;100935.52;;;7.27;100.00
62948;BME280;51940;52.126;-0.994;2023-04-07T07:55:33;100939.21;;;7.43;100.00
62948;BME280;51940;52.126;-0.994;2023-04-07T07:57:59;100945.75;;;7.53;100.00
62948;BME280;51940;52.126;-0.994;2023-04-07T08:00:24;100947.86;;;7.59;100.00
62948;BME280;51940;52.126;-0.994;2023-04-07T08:02:49;100951.92;;;7.67;100.00
62948;BME280;51940;52.126;-0.994;2023-04-07T08:05:15;100950.30;;;7.76;100.00
62948;BME280;51940;52.126;-0.994;2023-04-07T08:07:40;100950.97;;;7.85;100.00
62948;BME280;51940;52.126;-0.994;2023-04-07T08:10:07;100953.58;;;7.98;100.00
62948;BME280;51940;52.126;-0.994;2023-04-07T08:12:32;100956.73;;;8.11;100.00
62948;BME280;51940;52.126;-0.994;2023-04-07T08:14:58;100963.80;;;8.15;100.00
62948;BME280;51940;52.126;-0.994;2023-04-07T08:17:23;100962.33;;;8.23;100.00
62948;BME280;51940;52.126;-0.994;2023-04-07T08:19:48;100964.93;;;8.37;100.00
62948;BME280;51940;52.126;-0.994;2023-04-07T08:22:14;100966.83;;;8.51;100.00
62948;BME280;51940;52.126;-0.994;2023-04-07T08:24:39;100967.66;;;8.58;100.00
62948;BME280;51940;52.126;-0.994;2023-04-07T08:27:04;100968.33;;;8.65;100.00
62948;BME280;51940;52.126;-0.994;2023-04-07T08:29:30;100970.95;;;8.72;100.00
62948;BME280;51940;52.126;-0.994;2023-04-07T08:31:55;100978.02;;;8.76;100.00
62948;BME280;51940;52.126;-0.994;2023-04-07T08:34:20;100978.86;;;8.85;100.00
62948;BME280;51940;52.126;-0.994;2023-04-07T08:36:46;100977.16;;;8.96;100.00
62948;BME280;51940;52.126;-0.994;2023-04-07T08:39:11;100983.28;;;9.09;100.00
62948;BME280;51940;52.126;-0.994;2023-04-07T08:41:37;100985.86;;;9.19;100.00
62948;BME280;51940;52.126;-0.994;2023-04-07T08:44:03;100990.05;;;9.28;100.00
62948;BME280;51940;52.126;-0.994;2023-04-07T08:46:29;100994.98;;;9.34;100.00
62948;BME280;51940;52.126;-0.994;2023-04-07T08:48:55;100999.42;;;9.35;100.00
62948;BME280;51940;52.126;-0.994;2023-04-07T08:51:27;100994.60;;;9.37;100.00
62948;BME280;51940;52.126;-0.994;2023-04-07T08:53:53;100992.74;;;9.44;100.00
62948;BME280;51940;52.126;-0.994;2023-04-07T08:56:21;100993.78;;;9.48;100.00
62948;BME280;51940;52.126;-0.994;2023-04-07T08:58:47;100990.35;;;9.53;100.00
62948;BME280;51940;52.126;-0.994;2023-04-07T09:01:12;100983.43;;;9.68;100.00
62948;BME280;51940;52.126;-0.994;2023-04-07T09:03:38;100982.41;;;9.79;100.00
62948;BME280;51940;52.126;-0.994;2023-04-07T09:06:04;100986.13;;;9.96;100.00
62948;BME280;51940;52.126;-0.994;2023-04-07T09:08:29;100987.38;;;9.95;100.00
62948;BME280;51940;52.126;-0.994;2023-04-07T09:10:57;100987.62;;;10.05;100.00
62948;BME280;51940;52.126;-0.994;2023-04-07T09:13:23;100992.48;;;10.15;100.00
62948;BME280;51940;52.126;-0.994;2023-04-07T09:15:49;100993.33;;;10.20;100.00
62948;BME280;51940;52.126;-0.994;2023-04-07T09:18:15;100997.88;;;10.28;100.00
62948;BME280;51940;52.126;-0.994;2023-04-07T09:20:54;100994.17;;;10.38;100.00
62948;BME280;51940;52.126;-0.994;2023-04-07T09:25:55;100997.55;;;10.52;100.00
62948;BME280;51940;52.126;-0.994;2023-04-07T09:28:20;100987.80;;;10.82;100.00
62948;BME280;51940;52.126;-0.994;2023-04-07T09:30:53;100985.64;;;11.18;100.00
62948;BME280;51940;52.126;-0.994;2023-04-07T09:33:29;100994.23;;;11.15;100.00
62948;BME280;51940;52.126;-0.994;2023-04-07T09:35:54;100988.65;;;11.08;100.00
62948;BME280;51940;52.126;-0.994;2023-04-07T09:38:21;100986.10;;;11.11;100.00
62948;BME280;51940;52.126;-0.994;2023-04-07T09:40:46;100979.77;;;11.15;100.00
62948;BME280;51940;52.126;-0.994;2023-04-07T09:43:16;100981.66;;;11.20;100.00
62948;BME280;51940;52.126;-0.994;2023-04-07T09:45:42;100981.30;;;11.31;100.00
62948;BME280;51940;52.126;-0.994;2023-04-07T09:48:16;100976.11;;;11.42;100.00
62948;BME280;51940;52.126;-0.994;2023-04-07T09:50:42;100980.99;;;11.57;100.00
62948;BME280;51940;52.126;-0.994;2023-04-07T09:53:10;100980.38;;;11.71;100.00
62948;BME280;51940;52.126;-0.994;2023-04-07T09:55:35;100979.54;;;11.78;100.00
62948;BME280;51940;52.126;-0.994;2023-04-07T09:58:01;100975.75;;;12.07;100.00
62948;BME280;51940;52.126;-0.994;2023-04-07T10:00:28;100983.82;;;12.07;100.00
62948;BME280;51940;52.126;-0.994;2023-04-07T10:02:53;100983.72;;;12.19;100.00
62948;BME280;51940;52.126;-0.994;2023-04-07T10:05:19;100990.09;;;12.14;100.00
62948;BME280;51940;52.126;-0.994;2023-04-07T10:07:47;100993.93;;;12.10;100.00
62948;BME280;51940;52.126;-0.994;2023-04-07T10:10:13;100989.45;;;12.18;100.00
62948;BME280;51940;52.126;-0.994;2023-04-07T10:12:39;100993.63;;;12.33;100.00
62948;BME280;51940;52.126;-0.994;2023-04-07T10:15:05;101002.69;;;12.27;100.00
62948;BME280;51940;52.126;-0.994;2023-04-07T10:17:31;101002.27;;;12.22;100.00
62948;BME280;51940;52.126;-0.994;2023-04-07T10:19:57;101007.61;;;12.23;100.00
62948;BME280;51940;52.126;-0.994;2023-04-07T10:22:24;101009.80;;;12.20;100.00
62948;BME280;51940;52.126;-0.994;2023-04-07T10:27:18;101006.32;;;12.16;100.00
62948;BME280;51940;52.126;-0.994;2023-04-07T10:29:45;101004.71;;;12.32;100.00
62948;BME280;51940;52.126;-0.994;2023-04-07T10:32:13;101002.27;;;12.47;100.00
62948;BME280;51940;52.126;-0.994;2023-04-07T10:37:19;101008.73;;;12.53;100.00
62948;BME280;51940;52.126;-0.994;2023-04-07T10:39:48;101007.48;;;12.53;100.00
62948;BME280;51940;52.126;-0.994;2023-04-07T10:44:59;100995.34;;;12.67;100.00
62948;BME280;51940;52.126;-0.994;2023-04-07T10:47:25;100999.35;;;12.80;100.00
62948;BME280;51940;52.126;-0.994;2023-04-07T10:52:35;101003.70;;;12.70;100.00
62948;BME280;51940;52.126;-0.994;2023-04-07T11:00:28;100996.17;;;12.78;100.00
62948;BME280;51940;52.126;-0.994;2023-04-07T11:02:54;100991.10;;;13.10;100.00
62948;BME280;51940;52.126;-0.994;2023-04-07T11:05:20;100994.05;;;13.22;100.00
62948;BME280;51940;52.126;-0.994;2023-04-07T11:07:50;100989.30;;;13.26;100.00
62948;BME280;51940;52.126;-0.994;2023-04-07T11:10:17;100995.17;;;13.28;100.00
62948;BME280;51940;52.126;-0.994;2023-04-07T11:12:57;101004.15;;;13.19;100.00
62948;BME280;51940;52.126;-0.994;2023-04-07T11:15:23;101001.74;;;13.07;100.00
62948;BME280;51940;52.126;-0.994;2023-04-07T11:20:44;100998.52;;;13.29;100.00
62948;BME280;51940;52.126;-0.994;2023-04-07T11:23:10;100996.00;;;13.37;100.00
62948;BME280;51940;52.126;-0.994;2023-04-07T11:25:36;100989.35;;;13.45;100.00
62948;BME280;51940;52.126;-0.994;2023-04-07T11:28:04;100982.58;;;13.70;100.00
62948;BME280;51940;52.126;-0.994;2023-04-07T11:30:29;101000.09;;;13.85;100.00
62948;BME280;51940;52.126;-0.994;2023-04-07T11:32:55;101005.89;;;13.76;100.00
62948;BME280;51940;52.126;-0.994;2023-04-07T11:35:21;101014.36;;;13.61;100.00
62948;BME280;51940;52.126;-0.994;2023-04-07T11:37:47;101015.46;;;13.40;100.00
62948;BME280;51940;52.126;-0.994;2023-04-07T11:40:12;101016.48;;;13.28;100.00
62948;BME280;51940;52.126;-0.994;2023-04-07T11:42:41;101007.40;;;13.25;100.00
62948;BME280;51940;52.126;-0.994;2023-04-07T11:45:16;101001.01;;;13.44;100.00
62948;BME280;51940;52.126;-0.994;2023-04-07T11:47:43;100999.73;;;13.65;100.00
62948;BME280;51940;52.126;-0.994;2023-04-07T11:50:09;101005.06;;;13.80;100.00
62948;BME280;51940;52.126;-0.994;2023-04-07T11:52:41;101004.63;;;13.82;100.00
62948;BME280;51940;52.126;-0.994;2023-04-07T11:55:15;101010.31;;;13.65;100.00
62948;BME280;51940;52.126;-0.994;2023-04-07T11:57:40;101006.91;;;13.52;100.00
62948;BME280;51940;52.126;-0.994;2023-04-07T12:00:10;101007.47;;;13.51;100.00
62948;BME280;51940;52.126;-0.994;2023-04-07T12:02:35;101003.49;;;13.59;100.00
62948;BME280;51940;52.126;-0.994;2023-04-07T12:05:01;101005.48;;;13.78;100.00
62948;BME280;51940;52.126;-0.994;2023-04-07T12:07:27;101009.76;;;13.86;100.00
62948;BME280;51940;52.126;-0.994;2023-04-07T12:09:52;101011.38;;;13.92;100.00
62948;BME280;51940;52.126;-0.994;2023-04-07T12:12:27;101017.33;;;13.90;100.00
62948;BME280;51940;52.126;-0.994;2023-04-07T12:14:53;101021.95;;;13.73;100.00
62948;BME280;51940;52.126;-0.994;2023-04-07T12:17:20;101028.00;;;13.54;100.00
62948;BME280;51940;52.126;-0.994;2023-04-07T12:19:51;101026.23;;;13.39;100.00
62948;BME280;51940;52.126;-0.994;2023-04-07T12:22:17;101024.87;;;13.36;100.00
62948;BME280;51940;52.126;-0.994;2023-04-07T12:24:43;101025.60;;;13.36;100.00
62948;BME280;51940;52.126;-0.994;2023-04-07T12:27:08;101026.67;;;13.42;100.00
62948;BME280;51940;52.126;-0.994;2023-04-07T12:29:34;101018.16;;;13.53;100.00
62948;BME280;51940;52.126;-0.994;2023-04-07T12:32:01;101011.90;;;13.66;100.00
62948;BME280;51940;52.126;-0.994;2023-04-07T12:34:26;101005.36;;;13.89;100.00
62948;BME280;51940;52.126;-0.994;2023-04-07T12:36:52;101014.75;;;14.05;100.00
62948;BME280;51940;52.126;-0.994;2023-04-07T12:39:17;101014.28;;;14.03;100.00
62948;BME280;51940;52.126;-0.994;2023-04-07T12:41:43;101018.77;;;13.90;100.00
62948;BME280;51940;52.126;-0.994;2023-04-07T12:44:13;101019.84;;;13.70;100.00
62948;BME280;51940;52.126;-0.994;2023-04-07T12:46:41;101021.05;;;13.52;100.00
62948;BME280;51940;52.126;-0.994;2023-04-07T12:49:07;101017.35;;;13.50;100.00
62948;BME280;51940;52.126;-0.994;2023-04-07T12:51:32;101016.96;;;13.51;100.00
62948;BME280;51940;52.126;-0.994;2023-04-07T12:53:58;101019.13;;;13.51;100.00
62948;BME280;51940;52.126;-0.994;2023-04-07T12:56:25;101015.55;;;13.51;100.00
62948;BME280;51940;52.126;-0.994;2023-04-07T12:58:51;101017.39;;;13.48;100.00
62948;BME280;51940;52.126;-0.994;2023-04-07T13:01:17;101018.05;;;13.37;100.00